sensor_id;sensor_type;location;lat;lon;timestamp;pressure;altitude;pressure_sealevel;temperature;humidity
32298;BME280;18782;48.984;8.548;2022-12-18T00:01:24;101169.25;;;-7.55;90.73
32298;BME280;18782;48.984;8.548;2022-12-18T00:03:53;101176.59;;;-7.56;89.98
32298;BME280;18782;48.984;8.548;2022-12-18T00:06:24;101185.16;;;-7.54;89.94
32298;BME280;18782;48.984;8.548;2022-12-18T00:08:52;101192.66;;;-7.54;90.26
32298;BME280;18782;48.984;8.548;2022-12-18T00:11:23;101186.59;;;-7.56;90.23
32298;BME280;18782;48.984;8.548;2022-12-18T00:13:53;101180.16;;;-7.62;89.54
32298;BME280;18782;48.984;8.548;2022-12-18T00:16:22;101181.94;;;-7.68;88.98
32298;BME280;18782;48.984;8.548;2022-12-18T00:18:52;101186.25;;;-7.67;89.07
32298;BME280;18782;48.984;8.548;2022-12-18T00:21:21;101173.75;;;-7.67;88.92
32298;BME280;18782;48.984;8.548;2022-12-18T00:23:50;101176.56;;;-7.64;89.45
32298;BME280;18782;48.984;8.548;2022-12-18T00:26:19;101177.28;;;-7.57;90.57
32298;BME280;18782;48.984;8.548;2022-12-18T00:28:51;101169.44;;;-7.60;89.67
32298;BME280;18782;48.984;8.548;2022-12-18T00:31:20;101170.16;;;-7.62;89.53
32298;BME280;18782;48.984;8.548;2022-12-18T00:33:48;101183.03;;;-7.66;89.76
32298;BME280;18782;48.984;8.548;2022-12-18T00:36:23;101189.44;;;-7.68;89.56
32298;BME280;18782;48.984;8.548;2022-12-18T00:38:52;101195.84;;;-7.63;89.83
32298;BME280;18782;48.984;8.548;2022-12-18T00:41:20;101192.31;;;-7.65;89.79
32298;BME280;18782;48.984;8.548;2022-12-18T00:44:06;101197.66;;;-7.62;89.96
32298;BME280;18782;48.984;8.548;2022-12-18T00:46:34;101196.59;;;-7.64;89.69
32298;BME280;18782;48.984;8.548;2022-12-18T00:49:01;101195.84;;;-7.63;89.65
32298;BME280;18782;48.984;8.548;2022-12-18T00:51:30;101191.94;;;-7.60;89.51
32298;BME280;18782;48.984;8.548;2022-12-18T00:53:57;101197.13;;;-7.59;89.96
32298;BME280;18782;48.984;8.548;2022-12-18T00:56:25;101188.00;;;-7.58;90.12
32298;BME280;18782;48.984;8.548;2022-12-18T00:58:53;101184.25;;;-7.55;90.28
32298;BME280;18782;48.984;8.548;2022-12-18T01:01:22;101176.91;;;-7.53;89.82
32298;BME280;18782;48.984;8.548;2022-12-18T01:03:50;101193.00;;;-7.58;89.06
32298;BME280;18782;48.984;8.548;2022-12-18T01:06:19;101187.47;;;-7.56;90.18
32298;BME280;18782;48.984;8.548;2022-12-18T01:08:46;101181.06;;;-7.61;88.96
32298;BME280;18782;48.984;8.548;2022-12-18T01:11:16;101169.44;;;-7.60;88.92
32298;BME280;18782;48.984;8.548;2022-12-18T01:13:45;101170.84;;;-7.63;89.16
32298;BME280;18782;48.984;8.548;2022-12-18T01:16:14;101177.31;;;-7.65;88.58
32298;BME280;18782;48.984;8.548;2022-12-18T01:18:43;101178.38;;;-7.70;88.59
32298;BME280;18782;48.984;8.548;2022-12-18T01:21:13;101186.03;;;-7.68;88.25
32298;BME280;18782;48.984;8.548;2022-12-18T01:23:41;101182.13;;;-7.66;88.58
32298;BME280;18782;48.984;8.548;2022-12-18T01:26:11;101190.53;;;-7.66;88.79
32298;BME280;18782;48.984;8.548;2022-12-18T01:28:40;101191.22;;;-7.59;89.01
32298;BME280;18782;48.984;8.548;2022-12-18T01:31:12;101180.16;;;-7.54;88.42
32298;BME280;18782;48.984;8.548;2022-12-18T01:33:40;101168.16;;;-7.57;88.67
32298;BME280;18782;48.984;8.548;2022-12-18T01:36:14;101169.06;;;-7.49;88.91
32298;BME280;18782;48.984;8.548;2022-12-18T01:38:42;101164.59;;;-7.52;89.10
32298;BME280;18782;48.984;8.548;2022-12-18T01:41:10;101179.94;;;-7.49;88.62
32298;BME280;18782;48.984;8.548;2022-12-18T01:43:45;101172.81;;;-7.53;88.33
32298;BME280;18782;48.984;8.548;2022-12-18T01:46:14;101173.69;;;-7.52;88.40
32298;BME280;18782;48.984;8.548;2022-12-18T01:48:44;101176.03;;;-7.54;87.78
32298;BME280;18782;48.984;8.548;2022-12-18T01:51:13;101183.38;;;-7.55;88.72
32298;BME280;18782;48.984;8.548;2022-12-18T01:53:43;101178.38;;;-7.55;88.71
32298;BME280;18782;48.984;8.548;2022-12-18T01:56:13;101185.16;;;-7.54;88.67
32298;BME280;18782;48.984;8.548;2022-12-18T01:58:51;101190.50;;;-7.51;88.35
32298;BME280;18782;48.984;8.548;2022-12-18T02:01:20;101195.50;;;-7.58;88.34
32298;BME280;18782;48.984;8.548;2022-12-18T02:03:49;101191.94;;;-7.60;88.00
32298;BME280;18782;48.984;8.548;2022-12-18T02:06:23;101180.84;;;-7.63;89.41
32298;BME280;18782;48.984;8.548;2022-12-18T02:09:02;101181.06;;;-7.61;89.14
32298;BME280;18782;48.984;8.548;2022-12-18T02:11:40;101179.06;;;-7.64;89.33
32298;BME280;18782;48.984;8.548;2022-12-18T02:14:18;101174.25;;;-7.55;91.00
32298;BME280;18782;48.984;8.548;2022-12-18T02:16:59;101188.19;;;-7.50;90.54
32298;BME280;18782;48.984;8.548;2022-12-18T02:19:44;101189.44;;;-7.46;90.88
32298;BME280;18782;48.984;8.548;2022-12-18T02:22:25;101185.47;;;-7.44;90.25
32298;BME280;18782;48.984;8.548;2022-12-18T02:25:01;101178.34;;;-7.48;89.11
32298;BME280;18782;48.984;8.548;2022-12-18T02:27:34;101190.34;;;-7.60;89.39
32298;BME280;18782;48.984;8.548;2022-12-18T02:30:06;101195.66;;;-7.57;90.41
32298;BME280;18782;48.984;8.548;2022-12-18T02:32:38;101180.66;;;-7.57;90.23
32298;BME280;18782;48.984;8.548;2022-12-18T02:35:12;101173.53;;;-7.54;90.76
32298;BME280;18782;48.984;8.548;2022-12-18T02:37:43;101179.41;;;-7.53;89.86
32298;BME280;18782;48.984;8.548;2022-12-18T02:40:14;101191.19;;;-7.52;90.02
32298;BME280;18782;48.984;8.548;2022-12-18T02:42:44;101196.56;;;-7.49;90.54
32298;BME280;18782;48.984;8.548;2022-12-18T02:45:15;101190.50;;;-7.51;89.68
32298;BME280;18782;48.984;8.548;2022-12-18T02:47:47;101192.47;;;-7.56;89.88
32298;BME280;18782;48.984;8.548;2022-12-18T02:50:19;101195.84;;;-7.63;90.01
32298;BME280;18782;48.984;8.548;2022-12-18T02:53:01;101188.03;;;-7.66;90.44
32298;BME280;18782;48.984;8.548;2022-12-18T02:55:42;101200.69;;;-7.64;90.75
32298;BME280;18782;48.984;8.548;2022-12-18T02:58:17;101196.41;;;-7.65;89.53
32298;BME280;18782;48.984;8.548;2022-12-18T03:00:56;101207.66;;;-7.76;90.76
32298;BME280;18782;48.984;8.548;2022-12-18T03:03:30;101191.94;;;-7.68;91.22
32298;BME280;18782;48.984;8.548;2022-12-18T03:06:05;101190.34;;;-7.67;90.48
32298;BME280;18782;48.984;8.548;2022-12-18T03:08:37;101199.44;;;-7.60;91.36
32298;BME280;18782;48.984;8.548;2022-12-18T03:11:08;101198.53;;;-7.54;91.34
32298;BME280;18782;48.984;8.548;2022-12-18T03:13:40;101200.53;;;-7.51;91.00
32298;BME280;18782;48.984;8.548;2022-12-18T03:16:22;101201.41;;;-7.51;90.93
32298;BME280;18782;48.984;8.548;2022-12-18T03:18:55;101209.06;;;-7.49;90.72
32298;BME280;18782;48.984;8.548;2022-12-18T03:21:28;101201.22;;;-7.45;90.99
32298;BME280;18782;48.984;8.548;2022-12-18T03:23:58;101195.84;;;-7.48;90.43
32298;BME280;18782;48.984;8.548;2022-12-18T03:26:28;101199.78;;;-7.50;90.92
32298;BME280;18782;48.984;8.548;2022-12-18T03:29:04;101194.06;;;-7.49;91.01
32298;BME280;18782;48.984;8.548;2022-12-18T03:31:37;101203.72;;;-7.52;90.52
32298;BME280;18782;48.984;8.548;2022-12-18T03:34:09;101200.16;;;-7.62;90.78
32298;BME280;18782;48.984;8.548;2022-12-18T03:36:44;101199.63;;;-7.59;91.38
32298;BME280;18782;48.984;8.548;2022-12-18T03:39:13;101187.47;;;-7.56;91.57
32298;BME280;18782;48.984;8.548;2022-12-18T03:41:51;101183.69;;;-7.52;91.67
32298;BME280;18782;48.984;8.548;2022-12-18T03:44:34;101184.78;;;-7.57;91.02
32298;BME280;18782;48.984;8.548;2022-12-18T03:47:08;101183.88;;;-7.58;91.31
32298;BME280;18782;48.984;8.548;2022-12-18T03:49:45;101182.47;;;-7.63;91.11
32298;BME280;18782;48.984;8.548;2022-12-18T03:52:20;101189.09;;;-7.64;91.02
32298;BME280;18782;48.984;8.548;2022-12-18T03:54:48;101190.53;;;-7.66;90.33
32298;BME280;18782;48.984;8.548;2022-12-18T03:57:18;101193.56;;;-7.61;91.02
32298;BME280;18782;48.984;8.548;2022-12-18T03:59:54;101184.09;;;-7.56;91.25
32298;BME280;18782;48.984;8.548;2022-12-18T04:02:29;101180.66;;;-7.57;90.69
32298;BME280;18782;48.984;8.548;2022-12-18T04:05:03;101177.09;;;-7.52;90.39
32298;BME280;18782;48.984;8.548;2022-12-18T04:07:35;101175.16;;;-7.54;90.53
32298;BME280;18782;48.984;8.548;2022-12-18T04:10:07;101171.03;;;-7.54;90.21
32298;BME280;18782;48.984;8.548;2022-12-18T04:12:37;101178.38;;;-7.55;90.44
32298;BME280;18782;48.984;8.548;2022-12-18T04:15:10;101178.69;;;-7.52;90.54
32298;BME280;18782;48.984;8.548;2022-12-18T04:17:39;101177.28;;;-7.50;90.82
32298;BME280;18782;48.984;8.548;2022-12-18T04:20:10;101174.06;;;-7.49;90.21
32298;BME280;18782;48.984;8.548;2022-12-18T04:22:42;101179.75;;;-7.43;90.46
32298;BME280;18782;48.984;8.548;2022-12-18T04:25:13;101176.72;;;-7.48;90.00
32298;BME280;18782;48.984;8.548;2022-12-18T04:27:53;101178.88;;;-7.44;90.27
32298;BME280;18782;48.984;8.548;2022-12-18T04:30:22;101180.13;;;-7.40;90.85
32298;BME280;18782;48.984;8.548;2022-12-18T04:32:49;101183.69;;;-7.38;90.61
32298;BME280;18782;48.984;8.548;2022-12-18T04:35:19;101162.41;;;-7.34;90.95
32298;BME280;18782;48.984;8.548;2022-12-18T04:37:46;101172.94;;;-7.30;91.26
32298;BME280;18782;48.984;8.548;2022-12-18T04:40:15;101174.16;;;-7.26;90.83
32298;BME280;18782;48.984;8.548;2022-12-18T04:42:45;101172.19;;;-7.22;91.36
32298;BME280;18782;48.984;8.548;2022-12-18T04:45:13;101179.38;;;-7.25;90.25
32298;BME280;18782;48.984;8.548;2022-12-18T04:47:42;101185.22;;;-7.17;89.20
32298;BME280;18782;48.984;8.548;2022-12-18T04:50:10;101187.56;;;-7.19;88.99
32298;BME280;18782;48.984;8.548;2022-12-18T04:52:37;101178.28;;;-7.27;88.70
32298;BME280;18782;48.984;8.548;2022-12-18T04:55:06;101174.72;;;-7.29;88.87
32298;BME280;18782;48.984;8.548;2022-12-18T04:57:33;101187.59;;;-7.33;88.56
32298;BME280;18782;48.984;8.548;2022-12-18T05:00:02;101201.75;;;-7.48;88.14
32298;BME280;18782;48.984;8.548;2022-12-18T05:02:30;101193.34;;;-7.63;87.52
32298;BME280;18782;48.984;8.548;2022-12-18T05:04:59;101187.69;;;-7.76;88.04
32298;BME280;18782;48.984;8.548;2022-12-18T05:07:26;101190.88;;;-7.84;88.43
32298;BME280;18782;48.984;8.548;2022-12-18T05:09:54;101196.25;;;-7.88;87.98
32298;BME280;18782;48.984;8.548;2022-12-18T05:12:25;101203.41;;;-7.98;87.67
32298;BME280;18782;48.984;8.548;2022-12-18T05:14:52;101210.34;;;-8.03;87.37
32298;BME280;18782;48.984;8.548;2022-12-18T05:17:20;101210.16;;;-8.11;87.30
32298;BME280;18782;48.984;8.548;2022-12-18T05:19:47;101211.19;;;-8.31;86.79
32298;BME280;18782;48.984;8.548;2022-12-18T05:22:16;101206.41;;;-8.36;87.32
32298;BME280;18782;48.984;8.548;2022-12-18T05:24:44;101223.34;;;-8.41;88.26
32298;BME280;18782;48.984;8.548;2022-12-18T05:27:11;101230.44;;;-8.51;88.96
32298;BME280;18782;48.984;8.548;2022-12-18T05:29:39;101223.47;;;-8.61;88.65
32298;BME280;18782;48.984;8.548;2022-12-18T05:32:07;101222.22;;;-8.64;89.22
32298;BME280;18782;48.984;8.548;2022-12-18T05:34:34;101226.09;;;-8.67;89.60
32298;BME280;18782;48.984;8.548;2022-12-18T05:37:02;101231.47;;;-8.71;89.75
32298;BME280;18782;48.984;8.548;2022-12-18T05:39:31;101229.13;;;-8.76;89.38
32298;BME280;18782;48.984;8.548;2022-12-18T05:41:58;101224.97;;;-8.83;88.82
32298;BME280;18782;48.984;8.548;2022-12-18T05:44:26;101230.13;;;-8.88;89.70
32298;BME280;18782;48.984;8.548;2022-12-18T05:46:54;101221.94;;;-8.87;90.12
32298;BME280;18782;48.984;8.548;2022-12-18T05:49:21;101216.81;;;-8.82;90.45
32298;BME280;18782;48.984;8.548;2022-12-18T05:51:49;101211.09;;;-8.81;89.53
32298;BME280;18782;48.984;8.548;2022-12-18T05:54:16;101224.78;;;-8.91;88.65
32298;BME280;18782;48.984;8.548;2022-12-18T05:56:45;101226.72;;;-8.96;90.01
32298;BME280;18782;48.984;8.548;2022-12-18T05:59:14;101231.72;;;-8.96;89.11
32298;BME280;18782;48.984;8.548;2022-12-18T06:01:42;101228.88;;;-8.92;90.45
32298;BME280;18782;48.984;8.548;2022-12-18T06:04:10;101224.25;;;-8.89;89.97
32298;BME280;18782;48.984;8.548;2022-12-18T06:06:38;101226.59;;;-8.83;89.69
32298;BME280;18782;48.984;8.548;2022-12-18T06:09:06;101238.56;;;-8.81;89.60
32298;BME280;18782;48.984;8.548;2022-12-18T06:11:36;101236.63;;;-8.76;89.11
32298;BME280;18782;48.984;8.548;2022-12-18T06:14:06;101249.28;;;-8.75;88.26
32298;BME280;18782;48.984;8.548;2022-12-18T06:16:34;101248.53;;;-8.81;88.01
32298;BME280;18782;48.984;8.548;2022-12-18T06:19:04;101250.97;;;-8.88;87.31
32298;BME280;18782;48.984;8.548;2022-12-18T06:21:33;101253.44;;;-8.95;87.50
32298;BME280;18782;48.984;8.548;2022-12-18T06:24:01;101263.44;;;-8.95;87.59
32298;BME280;18782;48.984;8.548;2022-12-18T06:26:29;101261.25;;;-8.99;86.70
32298;BME280;18782;48.984;8.548;2022-12-18T06:28:57;101262.84;;;-9.07;87.05
32298;BME280;18782;48.984;8.548;2022-12-18T06:31:26;101256.34;;;-9.19;87.20
32298;BME280;18782;48.984;8.548;2022-12-18T06:33:54;101260.72;;;-9.31;86.76
32298;BME280;18782;48.984;8.548;2022-12-18T06:36:22;101279.91;;;-9.37;86.95
32298;BME280;18782;48.984;8.548;2022-12-18T06:38:49;101284.91;;;-9.37;87.49
32298;BME280;18782;48.984;8.548;2022-12-18T06:41:19;101289.94;;;-9.30;87.60
32298;BME280;18782;48.984;8.548;2022-12-18T06:43:47;101287.66;;;-9.28;86.29
32298;BME280;18782;48.984;8.548;2022-12-18T06:46:15;101295.28;;;-9.34;86.10
32298;BME280;18782;48.984;8.548;2022-12-18T06:48:46;101299.88;;;-9.37;86.63
32298;BME280;18782;48.984;8.548;2022-12-18T06:51:16;101309.44;;;-9.40;86.91
32298;BME280;18782;48.984;8.548;2022-12-18T06:53:44;101315.84;;;-9.42;86.71
32298;BME280;18782;48.984;8.548;2022-12-18T06:56:11;101318.75;;;-9.39;86.44
32298;BME280;18782;48.984;8.548;2022-12-18T06:58:39;101308.19;;;-9.43;85.81
32298;BME280;18782;48.984;8.548;2022-12-18T07:01:09;101308.81;;;-9.52;85.96
32298;BME280;18782;48.984;8.548;2022-12-18T07:03:38;101306.16;;;-9.53;86.16
32298;BME280;18782;48.984;8.548;2022-12-18T07:06:13;101310.75;;;-9.56;86.48
32298;BME280;18782;48.984;8.548;2022-12-18T07:08:42;101306.84;;;-9.54;87.21
32298;BME280;18782;48.984;8.548;2022-12-18T07:11:09;101316.13;;;-9.53;86.61
32298;BME280;18782;48.984;8.548;2022-12-18T07:13:37;101314.84;;;-9.57;86.07
32298;BME280;18782;48.984;8.548;2022-12-18T07:16:07;101306.50;;;-9.50;86.44
32298;BME280;18782;48.984;8.548;2022-12-18T07:18:42;101312.44;;;-9.50;86.11
32298;BME280;18782;48.984;8.548;2022-12-18T07:21:14;101307.31;;;-9.44;86.01
32298;BME280;18782;48.984;8.548;2022-12-18T07:23:42;101311.25;;;-9.39;86.24
32298;BME280;18782;48.984;8.548;2022-12-18T07:26:12;101315.38;;;-9.12;86.80
32298;BME280;18782;48.984;8.548;2022-12-18T07:28:40;101312.25;;;-8.97;85.44
32298;BME280;18782;48.984;8.548;2022-12-18T07:31:10;101331.34;;;-8.90;85.52
32298;BME280;18782;48.984;8.548;2022-12-18T07:33:38;101327.25;;;-8.90;85.33
32298;BME280;18782;48.984;8.548;2022-12-18T07:36:09;101325.47;;;-8.91;85.50
32298;BME280;18782;48.984;8.548;2022-12-18T07:38:39;101325.47;;;-8.91;85.43
32298;BME280;18782;48.984;8.548;2022-12-18T07:41:08;101329.44;;;-8.86;86.04
32298;BME280;18782;48.984;8.548;2022-12-18T07:43:37;101328.41;;;-8.81;86.64
32298;BME280;18782;48.984;8.548;2022-12-18T07:46:06;101332.53;;;-8.67;86.85
32298;BME280;18782;48.984;8.548;2022-12-18T07:48:34;101338.16;;;-8.55;86.99
32298;BME280;18782;48.984;8.548;2022-12-18T07:51:03;101348.91;;;-8.35;91.74
32298;BME280;18782;48.984;8.548;2022-12-18T07:53:32;101339.78;;;-7.86;99.26
32298;BME280;18782;48.984;8.548;2022-12-18T07:56:02;101347.50;;;-7.70;99.52
32298;BME280;18782;48.984;8.548;2022-12-18T07:58:51;101351.41;;;-7.58;96.11
32298;BME280;18782;48.984;8.548;2022-12-18T08:01:18;101346.63;;;-7.56;95.95
32298;BME280;18782;48.984;8.548;2022-12-18T08:03:46;101353.22;;;-7.64;93.52
32298;BME280;18782;48.984;8.548;2022-12-18T08:06:17;101361.03;;;-7.82;91.13
32298;BME280;18782;48.984;8.548;2022-12-18T08:08:51;101368.16;;;-7.93;90.77
32298;BME280;18782;48.984;8.548;2022-12-18T08:11:20;101369.16;;;-8.19;90.79
32298;BME280;18782;48.984;8.548;2022-12-18T08:13:48;101371.50;;;-8.06;91.33
32298;BME280;18782;48.984;8.548;2022-12-18T08:16:16;101364.53;;;-8.09;89.79
32298;BME280;18782;48.984;8.548;2022-12-18T08:18:45;101361.50;;;-8.06;91.15
32298;BME280;18782;48.984;8.548;2022-12-18T08:21:16;101367.56;;;-8.04;90.32
32298;BME280;18782;48.984;8.548;2022-12-18T08:23:46;101357.41;;;-7.99;90.29
32298;BME280;18782;48.984;8.548;2022-12-18T08:26:14;101366.91;;;-7.89;89.84
32298;BME280;18782;48.984;8.548;2022-12-18T08:28:43;101365.16;;;-7.83;89.32
32298;BME280;18782;48.984;8.548;2022-12-18T08:31:11;101370.50;;;-7.80;88.92
32298;BME280;18782;48.984;8.548;2022-12-18T08:33:38;101370.50;;;-7.80;89.50
32298;BME280;18782;48.984;8.548;2022-12-18T08:36:08;101355.72;;;-7.71;87.42
32298;BME280;18782;48.984;8.548;2022-12-18T08:38:37;101343.72;;;-7.88;88.64
32298;BME280;18782;48.984;8.548;2022-12-18T08:41:06;101331.94;;;-7.82;88.44
32298;BME280;18782;48.984;8.548;2022-12-18T08:43:34;101336.94;;;-7.82;88.71
32298;BME280;18782;48.984;8.548;2022-12-18T08:46:22;101338.72;;;-7.74;89.50
32298;BME280;18782;48.984;8.548;2022-12-18T08:48:51;101337.66;;;-7.83;88.22
32298;BME280;18782;48.984;8.548;2022-12-18T08:51:20;101333.72;;;-7.81;88.37
32298;BME280;18782;48.984;8.548;2022-12-18T08:53:47;101319.41;;;-7.96;86.86
32298;BME280;18782;48.984;8.548;2022-12-18T08:56:15;101316.03;;;-7.97;88.47
32298;BME280;18782;48.984;8.548;2022-12-18T08:58:43;101315.84;;;-7.98;88.12
32298;BME280;18782;48.984;8.548;2022-12-18T09:01:11;101316.94;;;-7.82;88.71
32298;BME280;18782;48.984;8.548;2022-12-18T09:03:41;101311.56;;;-7.92;87.73
32298;BME280;18782;48.984;8.548;2022-12-18T09:06:13;101310.81;;;-8.05;87.80
32298;BME280;18782;48.984;8.548;2022-12-18T09:08:42;101308.34;;;-7.84;89.26
32298;BME280;18782;48.984;8.548;2022-12-18T09:11:13;101301.91;;;-7.96;87.56
32298;BME280;18782;48.984;8.548;2022-12-18T09:13:41;101305.84;;;-7.84;87.66
32298;BME280;18782;48.984;8.548;2022-12-18T09:16:09;101307.13;;;-7.88;87.53
32298;BME280;18782;48.984;8.548;2022-12-18T09:18:36;101298.91;;;-7.86;87.06
32298;BME280;18782;48.984;8.548;2022-12-18T09:21:11;101304.47;;;-7.60;86.76
32298;BME280;18782;48.984;8.548;2022-12-18T09:23:39;101296.63;;;-7.56;85.60
32298;BME280;18782;48.984;8.548;2022-12-18T09:26:07;101304.09;;;-7.49;85.08
32298;BME280;18782;48.984;8.548;2022-12-18T09:28:35;101320.19;;;-7.40;84.93
32298;BME280;18782;48.984;8.548;2022-12-18T09:31:05;101320.91;;;-7.20;85.33
32298;BME280;18782;48.984;8.548;2022-12-18T09:33:34;101316.59;;;-6.99;85.41
32298;BME280;18782;48.984;8.548;2022-12-18T09:36:04;101320.44;;;-6.66;84.57
32298;BME280;18782;48.984;8.548;2022-12-18T09:38:33;101330.69;;;-6.34;83.27
32298;BME280;18782;48.984;8.548;2022-12-18T09:41:05;101335.22;;;-6.09;81.20
32298;BME280;18782;48.984;8.548;2022-12-18T09:43:36;101337.50;;;-5.73;84.67
32298;BME280;18782;48.984;8.548;2022-12-18T09:46:08;101342.44;;;-5.36;88.20
32298;BME280;18782;48.984;8.548;2022-12-18T09:48:40;101350.06;;;-4.88;87.57
32298;BME280;18782;48.984;8.548;2022-12-18T09:51:13;101344.06;;;-4.03;91.27
32298;BME280;18782;48.984;8.548;2022-12-18T09:53:47;101340.69;;;-4.19;75.43
32298;BME280;18782;48.984;8.548;2022-12-18T09:56:19;101347.97;;;-4.13;74.02
32298;BME280;18782;48.984;8.548;2022-12-18T09:58:53;101348.06;;;-4.05;74.41
32298;BME280;18782;48.984;8.548;2022-12-18T10:01:23;101350.91;;;-4.02;75.52
32298;BME280;18782;48.984;8.548;2022-12-18T10:03:59;101352.00;;;-3.91;74.99
32298;BME280;18782;48.984;8.548;2022-12-18T10:06:30;101344.84;;;-3.79;73.20
32298;BME280;18782;48.984;8.548;2022-12-18T10:09:07;101350.28;;;-3.59;74.34
32298;BME280;18782;48.984;8.548;2022-12-18T10:11:43;101355.22;;;-3.19;74.00
32298;BME280;18782;48.984;8.548;2022-12-18T10:14:21;101362.88;;;-2.93;71.35
32298;BME280;18782;48.984;8.548;2022-12-18T10:16:59;101360.59;;;-2.65;70.77
32298;BME280;18782;48.984;8.548;2022-12-18T10:19:41;101356.94;;;-2.43;70.01
32298;BME280;18782;48.984;8.548;2022-12-18T10:22:23;101353.38;;;-2.36;68.75
32298;BME280;18782;48.984;8.548;2022-12-18T10:24:59;101350.09;;;-2.44;67.74
32298;BME280;18782;48.984;8.548;2022-12-18T10:27:29;101338.25;;;-2.45;67.16
32298;BME280;18782;48.984;8.548;2022-12-18T10:30:00;101345.06;;;-2.44;68.24
32298;BME280;18782;48.984;8.548;2022-12-18T10:32:30;101346.25;;;-2.14;66.57
32298;BME280;18782;48.984;8.548;2022-12-18T10:34:57;101334.84;;;-2.19;65.79
32298;BME280;18782;48.984;8.548;2022-12-18T10:37:29;101320.28;;;-1.87;66.29
32298;BME280;18782;48.984;8.548;2022-12-18T10:40:11;101323.97;;;-1.75;65.22
32298;BME280;18782;48.984;8.548;2022-12-18T10:43:03;101332.38;;;-1.57;64.72
32298;BME280;18782;48.984;8.548;2022-12-18T10:45:31;101324.56;;;-1.24;64.94
32298;BME280;18782;48.984;8.548;2022-12-18T10:47:59;101322.81;;;-1.06;63.87
32298;BME280;18782;48.984;8.548;2022-12-18T10:50:28;101332.00;;;-0.70;62.73
32298;BME280;18782;48.984;8.548;2022-12-18T10:53:19;101318.56;;;-0.42;61.81
32298;BME280;18782;48.984;8.548;2022-12-18T10:55:49;101318.63;;;-0.13;60.83
32298;BME280;18782;48.984;8.548;2022-12-18T10:58:23;101312.94;;;0.09;59.29
32298;BME280;18782;48.984;8.548;2022-12-18T11:01:08;101307.75;;;-0.12;59.22
32298;BME280;18782;48.984;8.548;2022-12-18T11:03:37;101308.44;;;-0.04;58.83
32298;BME280;18782;48.984;8.548;2022-12-18T11:06:09;101318.56;;;0.25;58.21
32298;BME280;18782;48.984;8.548;2022-12-18T11:08:37;101306.69;;;0.63;57.84
32298;BME280;18782;48.984;8.548;2022-12-18T11:11:19;101309.25;;;0.73;57.93
32298;BME280;18782;48.984;8.548;2022-12-18T11:13:56;101321.44;;;0.88;57.33
32298;BME280;18782;48.984;8.548;2022-12-18T11:16:26;101325.75;;;0.99;56.74
32298;BME280;18782;48.984;8.548;2022-12-18T11:18:54;101318.91;;;0.88;56.10
32298;BME280;18782;48.984;8.548;2022-12-18T11:21:22;101319.16;;;0.81;55.16
32298;BME280;18782;48.984;8.548;2022-12-18T11:23:52;101317.69;;;1.23;55.55
32298;BME280;18782;48.984;8.548;2022-12-18T11:26:33;101319.22;;;1.21;53.67
32298;BME280;18782;48.984;8.548;2022-12-18T11:29:08;101311.09;;;1.15;55.50
32298;BME280;18782;48.984;8.548;2022-12-18T11:31:37;101302.22;;;1.20;55.45
32298;BME280;18782;48.984;8.548;2022-12-18T11:34:10;101301.56;;;1.43;55.75
32298;BME280;18782;48.984;8.548;2022-12-18T11:36:57;101305.50;;;1.60;54.81
32298;BME280;18782;48.984;8.548;2022-12-18T11:39:31;101301.69;;;1.65;54.51
32298;BME280;18782;48.984;8.548;2022-12-18T11:42:05;101297.88;;;1.50;55.61
32298;BME280;18782;48.984;8.548;2022-12-18T11:44:48;101303.81;;;1.71;54.62
32298;BME280;18782;48.984;8.548;2022-12-18T11:47:24;101304.44;;;1.89;53.93
32298;BME280;18782;48.984;8.548;2022-12-18T11:49:55;101291.72;;;2.31;68.53
32298;BME280;18782;48.984;8.548;2022-12-18T11:52:26;101285.56;;;2.39;57.86
32298;BME280;18782;48.984;8.548;2022-12-18T11:54:58;101286.66;;;1.89;55.27
32298;BME280;18782;48.984;8.548;2022-12-18T11:57:34;101279.88;;;1.67;55.97
32298;BME280;18782;48.984;8.548;2022-12-18T12:00:12;101265.31;;;1.87;54.95
32298;BME280;18782;48.984;8.548;2022-12-18T12:03:06;101260.56;;;1.59;55.04
32298;BME280;18782;48.984;8.548;2022-12-18T12:05:48;101267.22;;;1.47;54.72
32298;BME280;18782;48.984;8.548;2022-12-18T12:08:25;101264.16;;;0.90;56.24
32298;BME280;18782;48.984;8.548;2022-12-18T12:11:06;101258.03;;;0.67;58.42
32298;BME280;18782;48.984;8.548;2022-12-18T12:13:47;101265.56;;;0.27;61.08
32298;BME280;18782;48.984;8.548;2022-12-18T12:16:18;101265.34;;;0.44;60.43
32298;BME280;18782;48.984;8.548;2022-12-18T12:19:00;101264.91;;;0.68;60.03
32298;BME280;18782;48.984;8.548;2022-12-18T12:21:36;101258.28;;;0.60;61.01
32298;BME280;18782;48.984;8.548;2022-12-18T12:24:17;101242.28;;;0.51;61.07
32298;BME280;18782;48.984;8.548;2022-12-18T12:26:58;101241.31;;;0.59;61.35
32298;BME280;18782;48.984;8.548;2022-12-18T12:29:41;101243.38;;;0.84;58.90
32298;BME280;18782;48.984;8.548;2022-12-18T12:32:22;101249.44;;;0.65;60.38
32298;BME280;18782;48.984;8.548;2022-12-18T12:35:05;101251.75;;;0.33;60.53
32298;BME280;18782;48.984;8.548;2022-12-18T12:37:44;101260.53;;;0.08;61.10
32298;BME280;18782;48.984;8.548;2022-12-18T12:40:16;101264.00;;;-0.30;63.55
32298;BME280;18782;48.984;8.548;2022-12-18T12:43:20;101268.44;;;-0.08;63.67
32298;BME280;18782;48.984;8.548;2022-12-18T12:45:54;101267.75;;;0.13;73.36
32298;BME280;18782;48.984;8.548;2022-12-18T12:48:34;101268.56;;;0.22;68.58
32298;BME280;18782;48.984;8.548;2022-12-18T12:51:11;101261.13;;;0.34;64.60
32298;BME280;18782;48.984;8.548;2022-12-18T12:53:41;101255.09;;;0.42;63.62
32298;BME280;18782;48.984;8.548;2022-12-18T12:56:11;101261.59;;;0.59;63.83
32298;BME280;18782;48.984;8.548;2022-12-18T12:58:49;101249.13;;;0.52;63.27
32298;BME280;18782;48.984;8.548;2022-12-18T13:01:28;101247.41;;;0.71;62.16
32298;BME280;18782;48.984;8.548;2022-12-18T13:04:03;101244.50;;;0.87;74.23
32298;BME280;18782;48.984;8.548;2022-12-18T13:06:42;101240.72;;;1.75;73.45
32298;BME280;18782;48.984;8.548;2022-12-18T13:09:12;101240.03;;;1.46;63.83
32298;BME280;18782;48.984;8.548;2022-12-18T13:11:40;101231.31;;;1.42;62.23
32298;BME280;18782;48.984;8.548;2022-12-18T13:14:41;101218.97;;;1.57;60.54
32298;BME280;18782;48.984;8.548;2022-12-18T13:17:29;101219.28;;;1.19;61.27